sensor_id;sensor_type;location;lat;lon;timestamp;temperature;humidity
19586;DHT22;9939;49.246;9.106;2024-01-25T00:00:54;9.30;99.90
19586;DHT22;9939;49.246;9.106;2024-01-25T00:03:21;9.40;99.90
19586;DHT22;9939;49.246;9.106;2024-01-25T00:05:48;9.40;99.90
19586;DHT22;9939;49.246;9.106;2024-01-25T00:08:16;9.40;99.90
19586;DHT22;9939;49.246;9.106;2024-01-25T00:10:43;9.40;99.90
19586;DHT22;9939;49.246;9.106;2024-01-25T00:13:10;9.40;99.90
19586;DHT22;9939;49.246;9.106;2024-01-25T00:15:37;9.30;99.90
19586;DHT22;9939;49.246;9.106;2024-01-25T00:18:04;9.30;99.90
19586;DHT22;9939;49.246;9.106;2024-01-25T00:20:31;9.30;99.90
19586;DHT22;9939;49.246;9.106;2024-01-25T00:22:58;9.30;99.90
19586;DHT22;9939;49.246;9.106;2024-01-25T00:25:25;9.20;99.90
19586;DHT22;9939;49.246;9.106;2024-01-25T00:27:53;9.30;99.90
19586;DHT22;9939;49.246;9.106;2024-01-25T00:30:20;9.30;99.90
19586;DHT22;9939;49.246;9.106;2024-01-25T00:32:48;9.20;99.90
19586;DHT22;9939;49.246;9.106;2024-01-25T00:35:15;9.20;99.90
19586;DHT22;9939;49.246;9.106;2024-01-25T00:37:43;9.30;99.90
19586;DHT22;9939;49.246;9.106;2024-01-25T00:40:10;9.30;99.90
19586;DHT22;9939;49.246;9.106;2024-01-25T00:42:45;9.30;99.90
19586;DHT22;9939;49.246;9.106;2024-01-25T00:45:16;9.20;99.90
19586;DHT22;9939;49.246;9.106;2024-01-25T00:47:43;9.10;99.90
19586;DHT22;9939;49.246;9.106;2024-01-25T00:50:11;9.20;99.90
19586;DHT22;9939;49.246;9.106;2024-01-25T00:52:39;9.20;99.90
19586;DHT22;9939;49.246;9.106;2024-01-25T00:55:06;9.20;99.90
19586;DHT22;9939;49.246;9.106;2024-01-25T00:57:34;9.10;99.90
19586;DHT22;9939;49.246;9.106;2024-01-25T01:00:01;9.10;99.90
19586;DHT22;9939;49.246;9.106;2024-01-25T01:02:40;9.20;99.90
19586;DHT22;9939;49.246;9.106;2024-01-25T01:05:10;9.10;99.90
19586;DHT22;9939;49.246;9.106;2024-01-25T01:07:38;9.10;99.90
19586;DHT22;9939;49.246;9.106;2024-01-25T01:10:08;9.00;99.90
19586;DHT22;9939;49.246;9.106;2024-01-25T01:12:36;9.10;99.90
19586;DHT22;9939;49.246;9.106;2024-01-25T01:15:04;9.20;99.90
19586;DHT22;9939;49.246;9.106;2024-01-25T01:17:31;9.00;99.90
19586;DHT22;9939;49.246;9.106;2024-01-25T01:19:58;9.10;99.90
19586;DHT22;9939;49.246;9.106;2024-01-25T01:22:26;9.10;99.90
19586;DHT22;9939;49.246;9.106;2024-01-25T01:24:53;9.20;99.90
19586;DHT22;9939;49.246;9.106;2024-01-25T01:27:21;9.10;99.90
19586;DHT22;9939;49.246;9.106;2024-01-25T01:29:48;9.10;99.90
19586;DHT22;9939;49.246;9.106;2024-01-25T01:32:15;9.20;99.90
19586;DHT22;9939;49.246;9.106;2024-01-25T01:34:42;9.10;99.90
19586;DHT22;9939;49.246;9.106;2024-01-25T01:37:10;9.00;99.90
19586;DHT22;9939;49.246;9.106;2024-01-25T01:39:37;9.00;99.90
19586;DHT22;9939;49.246;9.106;2024-01-25T01:42:04;9.00;99.90
19586;DHT22;9939;49.246;9.106;2024-01-25T01:44:31;9.00;99.90
19586;DHT22;9939;49.246;9.106;2024-01-25T01:46:58;9.00;99.90
19586;DHT22;9939;49.246;9.106;2024-01-25T01:49:25;9.00;99.90
19586;DHT22;9939;49.246;9.106;2024-01-25T01:51:53;8.90;99.90
19586;DHT22;9939;49.246;9.106;2024-01-25T01:54:20;8.90;99.90
19586;DHT22;9939;49.246;9.106;2024-01-25T01:56:47;9.00;99.90
19586;DHT22;9939;49.246;9.106;2024-01-25T01:59:15;9.00;99.90
19586;DHT22;9939;49.246;9.106;2024-01-25T02:01:42;9.00;99.90
19586;DHT22;9939;49.246;9.106;2024-01-25T02:04:10;8.90;99.90
19586;DHT22;9939;49.246;9.106;2024-01-25T02:06:37;8.90;99.90
19586;DHT22;9939;49.246;9.106;2024-01-25T02:09:04;8.90;99.90
19586;DHT22;9939;49.246;9.106;2024-01-25T02:11:31;8.80;99.90
19586;DHT22;9939;49.246;9.106;2024-01-25T02:13:58;8.90;99.90
19586;DHT22;9939;49.246;9.106;2024-01-25T02:16:25;9.00;99.90
19586;DHT22;9939;49.246;9.106;2024-01-25T02:18:52;9.00;99.90
19586;DHT22;9939;49.246;9.106;2024-01-25T02:21:21;8.90;99.90
19586;DHT22;9939;49.246;9.106;2024-01-25T02:23:49;8.90;99.90
19586;DHT22;9939;49.246;9.106;2024-01-25T02:26:16;8.80;99.90
19586;DHT22;9939;49.246;9.106;2024-01-25T02:28:43;8.80;99.90
19586;DHT22;9939;49.246;9.106;2024-01-25T02:31:10;8.80;99.90
19586;DHT22;9939;49.246;9.106;2024-01-25T02:33:37;8.80;99.90
19586;DHT22;9939;49.246;9.106;2024-01-25T02:36:04;8.70;99.90
19586;DHT22;9939;49.246;9.106;2024-01-25T02:38:31;8.80;99.90
19586;DHT22;9939;49.246;9.106;2024-01-25T02:40:58;8.80;99.90
19586;DHT22;9939;49.246;9.106;2024-01-25T02:43:25;8.60;99.90
19586;DHT22;9939;49.246;9.106;2024-01-25T02:45:51;8.50;99.90
19586;DHT22;9939;49.246;9.106;2024-01-25T02:48:18;8.60;99.90
19586;DHT22;9939;49.246;9.106;2024-01-25T02:50:45;8.60;99.90
19586;DHT22;9939;49.246;9.106;2024-01-25T02:53:12;8.70;99.90
19586;DHT22;9939;49.246;9.106;2024-01-25T02:55:39;8.60;99.90
19586;DHT22;9939;49.246;9.106;2024-01-25T02:58:06;8.60;99.90
19586;DHT22;9939;49.246;9.106;2024-01-25T03:00:33;8.70;99.90
19586;DHT22;9939;49.246;9.106;2024-01-25T03:03:00;8.70;99.90
19586;DHT22;9939;49.246;9.106;2024-01-25T03:05:27;8.80;99.90
19586;DHT22;9939;49.246;9.106;2024-01-25T03:07:54;8.70;99.90
19586;DHT22;9939;49.246;9.106;2024-01-25T03:10:21;8.70;99.90
19586;DHT22;9939;49.246;9.106;2024-01-25T03:12:48;8.80;99.90
19586;DHT22;9939;49.246;9.106;2024-01-25T03:15:16;8.70;99.90
19586;DHT22;9939;49.246;9.106;2024-01-25T03:17:43;8.80;99.90
19586;DHT22;9939;49.246;9.106;2024-01-25T03:20:10;8.70;99.90
19586;DHT22;9939;49.246;9.106;2024-01-25T03:22:37;8.70;99.90
19586;DHT22;9939;49.246;9.106;2024-01-25T03:25:04;8.70;99.90
19586;DHT22;9939;49.246;9.106;2024-01-25T03:27:31;8.70;99.90
19586;DHT22;9939;49.246;9.106;2024-01-25T03:29:58;8.80;99.90
19586;DHT22;9939;49.246;9.106;2024-01-25T03:32:25;8.80;99.90
19586;DHT22;9939;49.246;9.106;2024-01-25T03:34:52;8.70;99.90
19586;DHT22;9939;49.246;9.106;2024-01-25T03:37:19;8.60;99.90
19586;DHT22;9939;49.246;9.106;2024-01-25T03:39:46;8.60;99.90
19586;DHT22;9939;49.246;9.106;2024-01-25T03:42:13;8.60;99.90
19586;DHT22;9939;49.246;9.106;2024-01-25T03:44:40;8.40;99.90
19586;DHT22;9939;49.246;9.106;2024-01-25T03:47:09;8.30;99.90
19586;DHT22;9939;49.246;9.106;2024-01-25T03:49:36;8.50;99.90
19586;DHT22;9939;49.246;9.106;2024-01-25T03:52:04;8.50;99.90
19586;DHT22;9939;49.246;9.106;2024-01-25T03:54:31;8.40;99.90
19586;DHT22;9939;49.246;9.106;2024-01-25T03:56:58;8.20;99.90
19586;DHT22;9939;49.246;9.106;2024-01-25T03:59:25;8.20;99.90
19586;DHT22;9939;49.246;9.106;2024-01-25T04:01:52;8.10;99.90
19586;DHT22;9939;49.246;9.106;2024-01-25T04:04:19;8.20;99.90
19586;DHT22;9939;49.246;9.106;2024-01-25T04:06:46;8.10;99.90
19586;DHT22;9939;49.246;9.106;2024-01-25T04:09:14;8.00;99.90
19586;DHT22;9939;49.246;9.106;2024-01-25T04:11:42;7.80;99.90
19586;DHT22;9939;49.246;9.106;2024-01-25T04:14:09;7.90;99.90
19586;DHT22;9939;49.246;9.106;2024-01-25T04:16:35;7.90;99.90
19586;DHT22;9939;49.246;9.106;2024-01-25T04:19:02;7.80;99.90
19586;DHT22;9939;49.246;9.106;2024-01-25T04:21:29;7.70;99.90
19586;DHT22;9939;49.246;9.106;2024-01-25T04:23:56;7.60;99.90
19586;DHT22;9939;49.246;9.106;2024-01-25T04:26:23;7.60;99.90
19586;DHT22;9939;49.246;9.106;2024-01-25T04:28:50;7.40;99.90
19586;DHT22;9939;49.246;9.106;2024-01-25T04:31:17;7.40;99.90
19586;DHT22;9939;49.246;9.106;2024-01-25T04:33:46;7.20;99.90
19586;DHT22;9939;49.246;9.106;2024-01-25T04:36:15;7.10;99.90
19586;DHT22;9939;49.246;9.106;2024-01-25T04:38:42;7.00;99.90
19586;DHT22;9939;49.246;9.106;2024-01-25T04:41:09;7.00;99.90
19586;DHT22;9939;49.246;9.106;2024-01-25T04:43:36;7.10;99.90
19586;DHT22;9939;49.246;9.106;2024-01-25T04:46:04;7.30;99.90
19586;DHT22;9939;49.246;9.106;2024-01-25T04:48:31;7.20;99.90
19586;DHT22;9939;49.246;9.106;2024-01-25T04:50:59;7.30;99.90
19586;DHT22;9939;49.246;9.106;2024-01-25T04:53:27;7.20;99.90
19586;DHT22;9939;49.246;9.106;2024-01-25T04:55:57;7.10;99.90
19586;DHT22;9939;49.246;9.106;2024-01-25T04:58:24;7.20;99.90
19586;DHT22;9939;49.246;9.106;2024-01-25T05:00:51;7.30;99.90
19586;DHT22;9939;49.246;9.106;2024-01-25T05:03:19;7.50;99.90
19586;DHT22;9939;49.246;9.106;2024-01-25T05:05:47;7.70;99.90
19586;DHT22;9939;49.246;9.106;2024-01-25T05:08:14;7.80;99.90
19586;DHT22;9939;49.246;9.106;2024-01-25T05:10:41;7.80;99.90
19586;DHT22;9939;49.246;9.106;2024-01-25T05:13:09;7.80;99.90
19586;DHT22;9939;49.246;9.106;2024-01-25T05:15:36;7.80;99.90
19586;DHT22;9939;49.246;9.106;2024-01-25T05:18:03;7.70;99.90
19586;DHT22;9939;49.246;9.106;2024-01-25T05:20:31;7.60;99.90
19586;DHT22;9939;49.246;9.106;2024-01-25T05:23:04;7.50;99.90
19586;DHT22;9939;49.246;9.106;2024-01-25T05:25:30;7.50;99.90
19586;DHT22;9939;49.246;9.106;2024-01-25T05:27:58;7.60;99.90
19586;DHT22;9939;49.246;9.106;2024-01-25T05:30:25;7.60;99.90
19586;DHT22;9939;49.246;9.106;2024-01-25T05:32:52;7.60;99.90
19586;DHT22;9939;49.246;9.106;2024-01-25T05:35:22;7.60;99.90
19586;DHT22;9939;49.246;9.106;2024-01-25T05:37:52;7.50;99.90
19586;DHT22;9939;49.246;9.106;2024-01-25T05:40:19;7.40;99.90
19586;DHT22;9939;49.246;9.106;2024-01-25T05:42:46;7.30;99.90
19586;DHT22;9939;49.246;9.106;2024-01-25T05:45:13;7.20;99.90
19586;DHT22;9939;49.246;9.106;2024-01-25T05:47:40;7.20;99.90
19586;DHT22;9939;49.246;9.106;2024-01-25T05:50:07;7.10;99.90
19586;DHT22;9939;49.246;9.106;2024-01-25T05:52:35;7.00;99.90
19586;DHT22;9939;49.246;9.106;2024-01-25T05:55:05;7.00;99.90
19586;DHT22;9939;49.246;9.106;2024-01-25T05:57:34;6.90;99.90
19586;DHT22;9939;49.246;9.106;2024-01-25T06:00:03;6.90;99.90
19586;DHT22;9939;49.246;9.106;2024-01-25T06:02:33;7.00;99.90
19586;DHT22;9939;49.246;9.106;2024-01-25T06:05:00;7.30;99.90
19586;DHT22;9939;49.246;9.106;2024-01-25T06:07:28;7.20;99.90
19586;DHT22;9939;49.246;9.106;2024-01-25T06:09:55;7.10;99.90
19586;DHT22;9939;49.246;9.106;2024-01-25T06:12:22;7.10;99.90
19586;DHT22;9939;49.246;9.106;2024-01-25T06:14:48;6.90;99.90
19586;DHT22;9939;49.246;9.106;2024-01-25T06:17:15;6.80;99.90
19586;DHT22;9939;49.246;9.106;2024-01-25T06:19:42;6.60;99.90
19586;DHT22;9939;49.246;9.106;2024-01-25T06:22:09;6.90;99.90
19586;DHT22;9939;49.246;9.106;2024-01-25T06:24:38;6.90;99.90
19586;DHT22;9939;49.246;9.106;2024-01-25T06:27:05;6.80;99.90
19586;DHT22;9939;49.246;9.106;2024-01-25T06:29:32;6.70;99.90
19586;DHT22;9939;49.246;9.106;2024-01-25T06:31:59;6.80;99.90
19586;DHT22;9939;49.246;9.106;2024-01-25T06:34:27;6.90;99.90
19586;DHT22;9939;49.246;9.106;2024-01-25T06:36:54;6.80;99.90
19586;DHT22;9939;49.246;9.106;2024-01-25T06:39:21;6.70;99.90
19586;DHT22;9939;49.246;9.106;2024-01-25T06:41:47;6.70;99.90
19586;DHT22;9939;49.246;9.106;2024-01-25T06:44:14;6.60;99.90
19586;DHT22;9939;49.246;9.106;2024-01-25T06:46:41;6.50;99.90
19586;DHT22;9939;49.246;9.106;2024-01-25T06:49:08;6.60;99.90
19586;DHT22;9939;49.246;9.106;2024-01-25T06:51:35;6.50;99.90
19586;DHT22;9939;49.246;9.106;2024-01-25T06:54:02;6.40;99.90
19586;DHT22;9939;49.246;9.106;2024-01-25T06:56:29;6.50;99.90
19586;DHT22;9939;49.246;9.106;2024-01-25T06:58:56;6.70;99.90
19586;DHT22;9939;49.246;9.106;2024-01-25T07:01:23;6.70;99.90
19586;DHT22;9939;49.246;9.106;2024-01-25T07:03:51;6.80;99.90
19586;DHT22;9939;49.246;9.106;2024-01-25T07:06:19;6.80;99.90
19586;DHT22;9939;49.246;9.106;2024-01-25T07:08:46;6.90;99.90
19586;DHT22;9939;49.246;9.106;2024-01-25T07:11:13;7.00;99.90
19586;DHT22;9939;49.246;9.106;2024-01-25T07:13:41;7.20;99.90
19586;DHT22;9939;49.246;9.106;2024-01-25T07:16:08;7.20;99.90
19586;DHT22;9939;49.246;9.106;2024-01-25T07:18:35;7.20;99.90
19586;DHT22;9939;49.246;9.106;2024-01-25T07:21:03;7.30;99.90
19586;DHT22;9939;49.246;9.106;2024-01-25T07:23:30;7.30;99.90
19586;DHT22;9939;49.246;9.106;2024-01-25T07:25:57;7.40;99.90
19586;DHT22;9939;49.246;9.106;2024-01-25T07:28:24;7.50;99.90
19586;DHT22;9939;49.246;9.106;2024-01-25T07:30:51;7.30;99.90
19586;DHT22;9939;49.246;9.106;2024-01-25T07:33:18;7.30;99.90
19586;DHT22;9939;49.246;9.106;2024-01-25T07:35:45;7.20;99.90
19586;DHT22;9939;49.246;9.106;2024-01-25T07:38:12;7.10;99.90
19586;DHT22;9939;49.246;9.106;2024-01-25T07:40:39;7.10;99.90
19586;DHT22;9939;49.246;9.106;2024-01-25T07:43:06;7.20;99.90
19586;DHT22;9939;49.246;9.106;2024-01-25T07:45:33;7.00;99.90
19586;DHT22;9939;49.246;9.106;2024-01-25T07:48:00;6.90;99.90
19586;DHT22;9939;49.246;9.106;2024-01-25T07:50:40;7.20;99.90
19586;DHT22;9939;49.246;9.106;2024-01-25T07:53:07;7.30;99.90
19586;DHT22;9939;49.246;9.106;2024-01-25T07:55:35;7.20;99.90
19586;DHT22;9939;49.246;9.106;2024-01-25T07:58:02;7.30;99.90
19586;DHT22;9939;49.246;9.106;2024-01-25T08:00:28;7.20;99.90
19586;DHT22;9939;49.246;9.106;2024-01-25T08:02:55;7.10;99.90
19586;DHT22;9939;49.246;9.106;2024-01-25T08:05:22;7.20;99.90
19586;DHT22;9939;49.246;9.106;2024-01-25T08:08:02;7.40;99.90
19586;DHT22;9939;49.246;9.106;2024-01-25T08:10:29;7.50;99.90
19586;DHT22;9939;49.246;9.106;2024-01-25T08:12:57;7.60;99.90
19586;DHT22;9939;49.246;9.106;2024-01-25T08:15:33;7.70;99.90
19586;DHT22;9939;49.246;9.106;2024-01-25T08:18:00;7.70;99.90
19586;DHT22;9939;49.246;9.106;2024-01-25T08:20:28;7.70;99.90
19586;DHT22;9939;49.246;9.106;2024-01-25T08:22:55;7.70;99.90
19586;DHT22;9939;49.246;9.106;2024-01-25T08:25:22;7.90;99.90
19586;DHT22;9939;49.246;9.106;2024-01-25T08:27:50;8.00;99.90
19586;DHT22;9939;49.246;9.106;2024-01-25T08:30:17;8.10;99.90
19586;DHT22;9939;49.246;9.106;2024-01-25T08:32:44;8.30;99.90
19586;DHT22;9939;49.246;9.106;2024-01-25T08:35:11;8.30;99.90
19586;DHT22;9939;49.246;9.106;2024-01-25T08:37:38;8.40;99.90
19586;DHT22;9939;49.246;9.106;2024-01-25T08:40:07;8.40;99.90
19586;DHT22;9939;49.246;9.106;2024-01-25T08:42:34;8.40;99.90
19586;DHT22;9939;49.246;9.106;2024-01-25T08:45:01;8.40;99.90
19586;DHT22;9939;49.246;9.106;2024-01-25T08:47:28;8.40;99.90
19586;DHT22;9939;49.246;9.106;2024-01-25T08:49:55;8.40;99.90
19586;DHT22;9939;49.246;9.106;2024-01-25T08:52:22;8.60;99.90
19586;DHT22;9939;49.246;9.106;2024-01-25T08:54:48;8.60;99.90
19586;DHT22;9939;49.246;9.106;2024-01-25T08:57:15;8.80;99.90
19586;DHT22;9939;49.246;9.106;2024-01-25T08:59:43;9.50;99.90
19586;DHT22;9939;49.246;9.106;2024-01-25T09:02:10;10.90;99.90
19586;DHT22;9939;49.246;9.106;2024-01-25T09:04:37;12.10;99.90
19586;DHT22;9939;49.246;9.106;2024-01-25T09:07:04;12.90;99.90
19586;DHT22;9939;49.246;9.106;2024-01-25T09:09:31;13.90;99.90
19586;DHT22;9939;49.246;9.106;2024-01-25T09:11:58;14.40;99.90
19586;DHT22;9939;49.246;9.106;2024-01-25T09:14:25;14.90;99.90
19586;DHT22;9939;49.246;9.106;2024-01-25T09:16:52;15.70;99.90
19586;DHT22;9939;49.246;9.106;2024-01-25T09:19:18;15.60;99.90
19586;DHT22;9939;49.246;9.106;2024-01-25T09:21:46;16.60;99.90
19586;DHT22;9939;49.246;9.106;2024-01-25T09:24:12;17.30;99.90
19586;DHT22;9939;49.246;9.106;2024-01-25T09:26:39;17.30;99.90
19586;DHT22;9939;49.246;9.106;2024-01-25T09:29:06;17.60;99.90
19586;DHT22;9939;49.246;9.106;2024-01-25T09:31:33;18.00;99.90
19586;DHT22;9939;49.246;9.106;2024-01-25T09:34:00;18.20;99.90
19586;DHT22;9939;49.246;9.106;2024-01-25T09:36:28;17.50;99.90
19586;DHT22;9939;49.246;9.106;2024-01-25T09:38:55;17.60;99.90
19586;DHT22;9939;49.246;9.106;2024-01-25T09:41:22;17.30;99.90
19586;DHT22;9939;49.246;9.106;2024-01-25T09:43:49;17.20;99.90
19586;DHT22;9939;49.246;9.106;2024-01-25T09:46:17;18.10;99.90
19586;DHT22;9939;49.246;9.106;2024-01-25T09:48:45;18.10;99.90
19586;DHT22;9939;49.246;9.106;2024-01-25T09:51:15;18.50;99.90
19586;DHT22;9939;49.246;9.106;2024-01-25T09:53:41;19.20;99.90
19586;DHT22;9939;49.246;9.106;2024-01-25T09:56:10;18.70;99.90
19586;DHT22;9939;49.246;9.106;2024-01-25T09:58:40;18.50;99.90
19586;DHT22;9939;49.246;9.106;2024-01-25T10:01:15;19.60;99.90
19586;DHT22;9939;49.246;9.106;2024-01-25T10:03:43;20.50;99.90
19586;DHT22;9939;49.246;9.106;2024-01-25T10:06:11;21.10;99.90
19586;DHT22;9939;49.246;9.106;2024-01-25T10:08:39;20.00;99.90
19586;DHT22;9939;49.246;9.106;2024-01-25T10:11:06;19.20;99.90
19586;DHT22;9939;49.246;9.106;2024-01-25T10:13:45;17.80;99.90
19586;DHT22;9939;49.246;9.106;2024-01-25T10:16:13;17.10;99.90
19586;DHT22;9939;49.246;9.106;2024-01-25T10:18:46;18.40;99.90
19586;DHT22;9939;49.246;9.106;2024-01-25T10:21:15;19.10;99.90
19586;DHT22;9939;49.246;9.106;2024-01-25T10:23:45;19.50;99.90
19586;DHT22;9939;49.246;9.106;2024-01-25T10:26:17;19.20;99.90
19586;DHT22;9939;49.246;9.106;2024-01-25T10:28:51;17.00;99.90
19586;DHT22;9939;49.246;9.106;2024-01-25T10:31:23;16.90;99.90
19586;DHT22;9939;49.246;9.106;2024-01-25T10:33:52;16.70;99.90
19586;DHT22;9939;49.246;9.106;2024-01-25T10:36:21;15.60;99.90
19586;DHT22;9939;49.246;9.106;2024-01-25T10:38:49;15.80;99.90
19586;DHT22;9939;49.246;9.106;2024-01-25T10:41:19;15.20;99.90
19586;DHT22;9939;49.246;9.106;2024-01-25T10:43:47;15.10;99.90
19586;DHT22;9939;49.246;9.106;2024-01-25T10:46:14;16.30;99.90
19586;DHT22;9939;49.246;9.106;2024-01-25T10:48:41;16.70;99.90
19586;DHT22;9939;49.246;9.106;2024-01-25T10:51:09;16.60;99.90
19586;DHT22;9939;49.246;9.106;2024-01-25T10:53:40;17.20;99.90
19586;DHT22;9939;49.246;9.106;2024-01-25T10:56:06;17.00;99.90
19586;DHT22;9939;49.246;9.106;2024-01-25T10:58:33;17.30;99.90
19586;DHT22;9939;49.246;9.106;2024-01-25T11:01:11;16.70;99.90
19586;DHT22;9939;49.246;9.106;2024-01-25T11:03:42;17.10;99.90
19586;DHT22;9939;49.246;9.106;2024-01-25T11:06:13;17.50;99.90
19586;DHT22;9939;49.246;9.106;2024-01-25T11:08:40;17.30;99.90
19586;DHT22;9939;49.246;9.106;2024-01-25T11:11:08;18.10;99.90
19586;DHT22;9939;49.246;9.106;2024-01-25T11:13:41;17.20;99.90
19586;DHT22;9939;49.246;9.106;2024-01-25T11:16:32;17.10;99.90
19586;DHT22;9939;49.246;9.106;2024-01-25T11:19:04;17.90;99.90
19586;DHT22;9939;49.246;9.106;2024-01-25T11:21:42;17.60;99.90
19586;DHT22;9939;49.246;9.106;2024-01-25T11:24:20;16.90;99.90
19586;DHT22;9939;49.246;9.106;2024-01-25T11:26:48;16.50;99.90
19586;DHT22;9939;49.246;9.106;2024-01-25T11:29:17;15.50;99.90
19586;DHT22;9939;49.246;9.106;2024-01-25T11:31:46;16.30;99.90
19586;DHT22;9939;49.246;9.106;2024-01-25T11:34:14;17.20;99.90
19586;DHT22;9939;49.246;9.106;2024-01-25T11:36:45;18.70;99.90
19586;DHT22;9939;49.246;9.106;2024-01-25T11:39:13;18.40;99.90
19586;DHT22;9939;49.246;9.106;2024-01-25T11:41:43;17.30;99.90
19586;DHT22;9939;49.246;9.106;2024-01-25T11:44:11;16.70;99.90
19586;DHT22;9939;49.246;9.106;2024-01-25T11:46:37;16.20;99.90
19586;DHT22;9939;49.246;9.106;2024-01-25T11:49:05;15.90;99.90
19586;DHT22;9939;49.246;9.106;2024-01-25T11:51:34;16.60;99.90
19586;DHT22;9939;49.246;9.106;2024-01-25T11:54:01;16.70;99.90
19586;DHT22;9939;49.246;9.106;2024-01-25T11:56:31;16.40;99.90
19586;DHT22;9939;49.246;9.106;2024-01-25T11:59:00;17.60;99.90
19586;DHT22;9939;49.246;9.106;2024-01-25T12:01:28;18.40;99.90
19586;DHT22;9939;49.246;9.106;2024-01-25T12:03:56;18.40;99.90
19586;DHT22;9939;49.246;9.106;2024-01-25T12:06:23;19.10;99.90
19586;DHT22;9939;49.246;9.106;2024-01-25T12:08:51;19.80;99.90
19586;DHT22;9939;49.246;9.106;2024-01-25T12:11:18;20.00;99.90
19586;DHT22;9939;49.246;9.106;2024-01-25T12:13:47;20.80;99.90
19586;DHT22;9939;49.246;9.106;2024-01-25T12:16:14;19.10;99.90
19586;DHT22;9939;49.246;9.106;2024-01-25T12:18:43;18.70;99.90
19586;DHT22;9939;49.246;9.106;2024-01-25T12:21:10;18.90;99.90
19586;DHT22;9939;49.246;9.106;2024-01-25T12:23:39;20.00;99.90
19586;DHT22;9939;49.246;9.106;2024-01-25T12:26:08;19.90;99.90
19586;DHT22;9939;49.246;9.106;2024-01-25T12:28:36;20.80;99.90
19586;DHT22;9939;49.246;9.106;2024-01-25T12:31:04;19.20;99.90
19586;DHT22;9939;49.246;9.106;2024-01-25T12:33:33;18.80;99.90
19586;DHT22;9939;49.246;9.106;2024-01-25T12:36:02;18.90;99.90
19586;DHT22;9939;49.246;9.106;2024-01-25T12:38:30;17.90;99.90
19586;DHT22;9939;49.246;9.106;2024-01-25T12:41:00;17.70;99.90
19586;DHT22;9939;49.246;9.106;2024-01-25T12:43:27;17.70;99.90
19586;DHT22;9939;49.246;9.106;2024-01-25T12:45:54;18.00;99.90
19586;DHT22;9939;49.246;9.106;2024-01-25T12:48:29;17.30;99.90
19586;DHT22;9939;49.246;9.106;2024-01-25T12:50:56;17.60;99.90
19586;DHT22;9939;49.246;9.106;2024-01-25T12:53:23;17.10;99.90
19586;DHT22;9939;49.246;9.106;2024-01-25T12:55:51;16.80;99.90
19586;DHT22;9939;49.246;9.106;2024-01-25T12:58:18;16.60;99.90
19586;DHT22;9939;49.246;9.106;2024-01-25T13:00:46;16.50;99.90
19586;DHT22;9939;49.246;9.106;2024-01-25T13:03:13;16.30;99.90
19586;DHT22;9939;49.246;9.106;2024-01-25T13:05:41;16.30;99.90
19586;DHT22;9939;49.246;9.106;2024-01-25T13:08:08;15.90;99.90
19586;DHT22;9939;49.246;9.106;2024-01-25T13:10:35;16.00;99.90
19586;DHT22;9939;49.246;9.106;2024-01-25T13:13:02;16.10;99.90
19586;DHT22;9939;49.246;9.106;2024-01-25T13:15:29;15.70;99.90
19586;DHT22;9939;49.246;9.106;2024-01-25T13:17:56;15.90;99.90
19586;DHT22;9939;49.246;9.106;2024-01-25T13:20:23;15.70;99.90
19586;DHT22;9939;49.246;9.106;2024-01-25T13:22:50;15.30;99.90
19586;DHT22;9939;49.246;9.106;2024-01-25T13:25:17;14.90;99.90
19586;DHT22;9939;49.246;9.106;2024-01-25T13:27:44;14.70;99.90
19586;DHT22;9939;49.246;9.106;2024-01-25T13:30:11;14.70;99.90
19586;DHT22;9939;49.246;9.106;2024-01-25T13:32:39;14.70;99.90
19586;DHT22;9939;49.246;9.106;2024-01-25T13:35:06;14.50;99.90
19586;DHT22;9939;49.246;9.106;2024-01-25T13:37:34;14.10;99.90
19586;DHT22;9939;49.246;9.106;2024-01-25T13:40:01;14.10;99.90
19586;DHT22;9939;49.246;9.106;2024-01-25T13:42:28;14.00;99.90
19586;DHT22;9939;49.246;9.106;2024-01-25T13:44:55;13.80;99.90
19586;DHT22;9939;49.246;9.106;2024-01-25T13:47:22;13.80;99.90
19586;DHT22;9939;49.246;9.106;2024-01-25T13:49:49;13.70;99.90
19586;DHT22;9939;49.246;9.106;2024-01-25T13:52:20;13.60;99.90
19586;DHT22;9939;49.246;9.106;2024-01-25T13:54:47;13.70;99.90
19586;DHT22;9939;49.246;9.106;2024-01-25T13:57:17;13.70;99.90
19586;DHT22;9939;49.246;9.106;2024-01-25T13:59:44;13.70;99.90
19586;DHT22;9939;49.246;9.106;2024-01-25T14:02:11;13.90;99.90
19586;DHT22;9939;49.246;9.106;2024-01-25T14:04:38;14.00;99.90
19586;DHT22;9939;49.246;9.106;2024-01-25T14:07:06;13.90;99.90
19586;DHT22;9939;49.246;9.106;2024-01-25T14:09:34;13.80;99.90
19586;DHT22;9939;49.246;9.106;2024-01-25T14:12:01;13.60;99.90
19586;DHT22;9939;49.246;9.106;2024-01-25T14:14:28;13.70;99.90
19586;DHT22;9939;49.246;9.106;2024-01-25T14:16:56;13.70;99.90
19586;DHT22;9939;49.246;9.106;2024-01-25T14:19:23;13.50;99.90
19586;DHT22;9939;49.246;9.106;2024-01-25T14:21:50;13.40;99.90
19586;DHT22;9939;49.246;9.106;2024-01-25T14:24:20;13.60;99.90
19586;DHT22;9939;49.246;9.106;2024-01-25T14:26:47;13.80;99.90
19586;DHT22;9939;49.246;9.106;2024-01-25T14:29:14;13.70;99.90
19586;DHT22;9939;49.246;9.106;2024-01-25T14:31:41;13.50;99.90
19586;DHT22;9939;49.246;9.106;2024-01-25T14:34:08;13.20;99.90
19586;DHT22;9939;49.246;9.106;2024-01-25T14:36:38;12.80;99.90
19586;DHT22;9939;49.246;9.106;2024-01-25T14:39:05;12.60;99.90
19586;DHT22;9939;49.246;9.106;2024-01-25T14:41:34;12.60;99.90
19586;DHT22;9939;49.246;9.106;2024-01-25T14:44:01;12.60;99.90
19586;DHT22;9939;49.246;9.106;2024-01-25T14:46:28;12.60;99.90
19586;DHT22;9939;49.246;9.106;2024-01-25T14:48:55;12.50;99.90
19586;DHT22;9939;49.246;9.106;2024-01-25T14:51:24;12.40;99.90
19586;DHT22;9939;49.246;9.106;2024-01-25T14:53:51;12.40;99.90
19586;DHT22;9939;49.246;9.106;2024-01-25T14:56:18;12.30;99.90
19586;DHT22;9939;49.246;9.106;2024-01-25T14:58:45;12.30;99.90
19586;DHT22;9939;49.246;9.106;2024-01-25T15:01:16;12.10;99.90
19586;DHT22;9939;49.246;9.106;2024-01-25T15:03:45;12.00;99.90
19586;DHT22;9939;49.246;9.106;2024-01-25T15:06:13;11.90;99.90
19586;DHT22;9939;49.246;9.106;2024-01-25T15:08:40;11.80;99.90
19586;DHT22;9939;49.246;9.106;2024-01-25T15:11:06;11.60;99.90
19586;DHT22;9939;49.246;9.106;2024-01-25T15:13:33;11.30;99.90
19586;DHT22;9939;49.246;9.106;2024-01-25T15:16:01;11.30;99.90
19586;DHT22;9939;49.246;9.106;2024-01-25T15:18:28;11.20;99.90
19586;DHT22;9939;49.246;9.106;2024-01-25T15:20:56;11.10;99.90
19586;DHT22;9939;49.246;9.106;2024-01-25T15:23:23;11.00;99.90
19586;DHT22;9939;49.246;9.106;2024-01-25T15:25:49;10.90;99.90
19586;DHT22;9939;49.246;9.106;2024-01-25T15:28:17;10.70;99.90
19586;DHT22;9939;49.246;9.106;2024-01-25T15:30:47;10.60;99.90
19586;DHT22;9939;49.246;9.106;2024-01-25T15:33:14;10.50;99.90
19586;DHT22;9939;49.246;9.106;2024-01-25T15:35:41;10.40;99.90
19586;DHT22;9939;49.246;9.106;2024-01-25T15:38:07;10.40;99.90
19586;DHT22;9939;49.246;9.106;2024-01-25T15:40:34;10.30;99.90
19586;DHT22;9939;49.246;9.106;2024-01-25T15:43:01;10.30;99.90
19586;DHT22;9939;49.246;9.106;2024-01-25T15:45:29;10.10;99.90
19586;DHT22;9939;49.246;9.106;2024-01-25T15:47:56;9.90;99.90
19586;DHT22;9939;49.246;9.106;2024-01-25T15:50:23;9.80;99.90
19586;DHT22;9939;49.246;9.106;2024-01-25T15:52:49;9.80;99.90
19586;DHT22;9939;49.246;9.106;2024-01-25T15:55:16;9.80;99.90
19586;DHT22;9939;49.246;9.106;2024-01-25T15:57:43;9.70;99.90